Latest Weather Observations for Kingfish B

IDV60801

Issued at 10:31 pm EST Wednesday 25 May 2016 (issued every 30 minutes, with the page automatically refreshed every 10 minutes)

About weather observations | Map of weather stations | Latest weather observations for VIC | Other Formats
Station Details ID: 400139 Name: KINGFISH B (PLATFORM) Lat: -38.60 Lon: 148.19 Height: 31.4 m
Data from the previous 72 hours. | See also: Recent months for locations in Victoria
Date/Time
EST
Temp
°C
App
Temp
°C
Dew
Point
Rel
Hum
%
Delta-T
°C
Wind Press
QNH
hPa
Press
MSL
hPa
Rain
since 9 am
mm
Dir
 
Spd
km/h
Gust
km/h
Spd
kts
Gust
kts
24/09:30am 15.2 6.6 8.8 65 3.3 SW 44 54 24 29 1015.0 - -
24/09:20am 15.1 6.6 9.2 68 3.0 SW 44 56 24 30 1014.6 - -
24/09:10am 14.7 6.1 9.0 68 2.9 SW 44 54 24 29 1014.4 - -
24/09:00am 14.1 4.3 8.5 69 2.8 SW 50 61 27 33 1014.8 - -
24/08:50am 13.6 3.8 8.5 71 2.6 SW 50 63 27 34 1014.2 - -
24/08:40am 13.5 2.9 8.4 71 2.5 SW 54 72 29 39 1014.8 - -
24/08:30am 14.3 3.2 8.7 69 2.8 SW 57 72 31 39 1014.2 - -
24/08:20am 14.4 5.0 8.7 68 2.9 SW 48 57 26 31 1013.5 - -
24/08:10am 14.2 4.4 8.7 69 2.8 SW 50 59 27 32 1014.1 - -
24/08:00am 14.1 4.4 9.0 71 2.6 SW 50 63 27 34 1014.2 - -
24/07:50am 13.9 5.0 9.1 73 2.4 SW 46 56 25 30 1013.5 - -
24/07:40am 13.4 4.0 8.9 74 2.3 SW 48 57 26 31 1013.1 - -
24/07:30am 13.4 1.2 9.0 75 2.2 SW 63 78 34 42 1014.1 - -
24/07:20am 13.7 3.4 9.5 76 2.1 SW 54 65 29 35 1012.8 - -
24/07:10am 13.3 2.6 9.4 77 2.0 SW 56 65 30 35 1013.3 - -
24/07:00am 13.0 2.9 9.1 77 2.0 SW 52 70 28 38 1013.6 - -
24/06:50am 13.5 2.2 9.3 76 2.1 SW 59 78 32 42 1013.5 - -
24/06:40am 13.8 3.8 9.4 75 2.2 WSW 52 67 28 36 1012.9 - -
24/06:30am 14.0 5.5 9.4 74 2.4 WSW 44 61 24 33 1013.1 - -
24/06:20am 14.2 5.0 9.5 73 2.4 WSW 48 59 26 32 1012.2 - -
24/06:10am 14.1 5.3 9.4 73 2.4 WSW 46 57 25 31 1012.5 - -
24/06:00am 14.0 5.5 9.2 73 2.4 W 44 56 24 30 1012.4 - -
24/05:50am 14.0 5.1 9.2 73 2.4 W 46 56 25 30 1012.3 - -
24/05:40am 14.0 4.3 9.2 73 2.4 WSW 50 61 27 33 1012.1 - -
24/05:30am 14.0 4.7 9.1 72 2.5 WSW 48 57 26 31 1011.8 - -
24/05:20am 14.0 4.7 9.1 72 2.5 WSW 48 59 26 32 1012.0 - -
24/05:10am 13.9 5.0 9.1 73 2.4 WSW 46 56 25 30 1011.9 - -
24/05:00am 13.8 5.2 9.0 73 2.4 W 44 52 24 28 1012.3 - -
24/04:50am 13.8 4.8 9.0 73 2.4 WSW 46 54 25 29 1012.2 - -
24/04:40am 14.0 5.5 9.1 72 2.5 W 44 52 24 28 1012.4 - -
24/04:30am 14.0 6.0 9.0 72 2.5 W 41 52 22 28 1012.3 - -
24/04:20am 14.0 6.3 8.8 71 2.6 WSW 39 46 21 25 1012.4 - -
24/04:10am 13.9 5.9 8.9 72 2.5 WSW 41 50 22 27 1012.5 - -
24/04:00am 13.9 6.3 8.9 72 2.5 W 39 48 21 26 1012.6 - -
24/03:50am 13.9 5.8 8.8 71 2.6 WSW 41 48 22 26 1012.4 - -
24/03:40am 14.0 5.6 8.8 71 2.6 W 43 50 23 27 1012.6 - -
24/03:30am 14.1 6.4 8.8 70 2.7 W 39 48 21 26 1012.8 - -
24/03:20am 14.0 5.9 8.5 69 2.8 WSW 41 52 22 28 1012.6 - -
24/03:10am 13.9 5.4 8.5 70 2.7 WSW 43 50 23 27 1012.6 - -
24/03:00am 13.9 5.8 8.5 70 2.7 WSW 41 52 22 28 1012.6 - -
24/02:50am 13.9 5.4 8.5 70 2.7 WSW 43 52 23 28 1012.6 - -
24/02:40am 13.9 5.4 8.4 69 2.8 WSW 43 52 23 28 1012.6 - -
24/02:30am 13.9 5.4 8.6 70 2.7 WSW 43 54 23 29 1012.6 - -
24/02:20am 13.8 5.7 8.7 71 2.6 WSW 41 46 22 25 1012.7 - -
24/02:10am 13.8 5.7 8.7 71 2.6 WSW 41 48 22 26 1012.8 - -
24/02:00am 13.8 5.7 8.7 71 2.6 WSW 41 48 22 26 1012.8 - -
24/01:50am 13.4 6.8 8.4 72 2.5 WSW 33 44 18 24 1013.1 - -
24/01:40am 13.5 5.8 8.5 72 2.5 WSW 39 44 21 24 1013.0 - -
24/01:30am 13.4 6.4 8.5 72 2.5 WSW 35 44 19 24 1013.1 - -
24/01:20am 13.4 6.8 8.4 72 2.5 WSW 33 41 18 22 1013.4 - -
24/01:10am 13.3 5.5 8.3 72 2.5 WSW 39 46 21 25 1013.0 - -
24/01:00am 13.2 5.4 8.2 71 2.5 WSW 39 44 21 24 1013.1 - -
24/12:50am 13.0 5.1 8.0 71 2.5 WSW 39 44 21 24 1013.1 - -
24/12:40am 13.1 5.7 8.3 72 2.4 WSW 37 46 20 25 1013.3 - -
24/12:30am 13.1 5.3 8.2 72 2.4 WSW 39 48 21 26 1013.2 - -
24/12:20am 13.1 4.9 8.2 72 2.4 WSW 41 52 22 28 1013.2 - -
24/12:10am 13.0 5.5 8.0 71 2.5 WSW 37 46 20 25 1013.3 - -
24/12:00am 12.9 5.0 7.8 71 2.5 WSW 39 50 21 27 1013.2 - -
 
Date/Time
EST
Temp
°C
App
Temp
°C
Dew
Point
Rel
Hum
%
Delta-T
°C
Wind Press
QNH
hPa
Press
MSL
hPa
Rain
since 9 am
mm
Dir
 
Spd
km/h
Gust
km/h
Spd
kts
Gust
kts
23/11:50pm 12.7 3.8 7.6 71 2.5 WSW 44 57 24 31 1013.3 - -
23/11:40pm 12.7 3.8 7.6 71 2.5 SW 44 61 24 33 1013.3 - -
23/11:30pm 13.2 4.4 8.2 71 2.5 WSW 44 61 24 33 1013.3 - -
23/11:20pm 13.2 5.4 8.3 72 2.4 WSW 39 48 21 26 1013.5 - -
23/11:10pm 13.0 5.9 8.0 71 2.5 WSW 35 44 19 24 1013.6 - -
23/11:00pm 13.2 4.6 8.1 71 2.5 WSW 43 52 23 28 1013.8 - -
23/10:50pm 13.3 5.1 8.0 70 2.6 WSW 41 56 22 30 1013.7 - -
23/10:40pm 13.5 6.0 8.0 69 2.7 WSW 37 54 20 29 1013.8 - -
23/10:30pm 13.3 5.0 7.7 69 2.8 WSW 41 50 22 27 1013.6 - -
23/10:20pm 13.9 6.1 8.2 68 2.8 WSW 39 61 21 33 1013.4 - -
23/10:10pm 13.8 5.5 7.9 67 2.9 WSW 41 46 22 25 1013.4 - -
23/10:00pm 14.2 5.9 7.6 64 3.3 WSW 41 54 22 29 1013.4 - -
23/09:50pm 15.5 7.7 9.6 68 3.1 WSW 41 56 22 30 1013.7 - -
23/09:40pm 14.1 5.5 8.2 67 2.9 WSW 43 54 23 29 1013.6 - -
23/09:30pm 14.1 5.9 8.0 66 3.0 WSW 41 54 22 29 1013.1 - -
23/09:10pm 14.3 5.2 8.5 68 2.9 WSW 46 52 25 28 1013.4 - -
23/09:00pm 13.8 4.6 8.1 68 2.8 WSW 46 54 25 29 1013.3 - -
23/08:50pm 13.7 4.5 8.0 68 2.8 WSW 46 57 25 31 1013.2 - -
23/08:40pm 13.8 5.0 8.0 68 2.9 WSW 44 54 24 29 1013.5 - -
23/08:30pm 13.7 4.1 7.8 67 2.9 WSW 48 57 26 31 1012.9 - -
23/08:20pm 13.6 4.0 7.8 68 2.9 WSW 48 57 26 31 1012.8 - -
23/08:10pm 13.7 4.1 7.9 68 2.9 WSW 48 59 26 32 1012.7 - -
23/08:00pm 13.8 3.8 7.8 67 3.0 WSW 50 59 27 32 1012.7 - -
23/07:50pm 13.8 3.1 8.0 68 2.9 WSW 54 67 29 36 1012.4 - -
23/07:40pm 13.7 2.6 7.8 67 2.9 WSW 56 67 30 36 1012.4 - -
23/07:30pm 13.7 2.5 7.7 67 3.0 WSW 56 67 30 36 1012.3 - -
23/07:20pm 13.7 2.5 7.7 67 3.0 WSW 56 69 30 37 1012.4 - -
23/07:10pm 13.7 2.9 7.5 66 3.0 WSW 54 69 29 37 1012.5 - -
23/07:00pm 13.7 1.9 7.4 65 3.1 WSW 59 70 32 38 1012.2 - -
23/06:50pm 13.8 2.0 7.5 66 3.1 WSW 59 69 32 37 1012.1 - -
23/06:40pm 13.8 2.0 7.5 66 3.1 WSW 59 69 32 37 1011.9 - -
23/06:30pm 13.7 0.7 7.1 64 3.2 WSW 65 76 35 41 1011.3 - -
23/06:20pm 13.8 1.2 7.2 64 3.2 WSW 63 78 34 42 1011.3 - -
23/06:10pm 13.8 2.4 7.4 65 3.1 WSW 57 70 31 38 1011.4 - -
23/06:00pm 13.9 2.5 7.4 65 3.2 WSW 57 69 31 37 1011.3 - -
23/05:50pm 13.7 2.3 7.4 65 3.1 WSW 57 69 31 37 1011.5 - -
23/05:40pm 13.5 2.1 7.4 66 3.0 WSW 57 69 31 37 1011.7 - -
23/05:30pm 13.6 1.8 7.3 65 3.1 WSW 59 72 32 39 1011.8 - -
23/05:20pm 14.0 1.4 7.3 64 3.3 WSW 63 76 34 41 1011.8 - -
23/05:10pm 14.2 2.8 7.4 63 3.3 W 57 72 31 39 1011.8 - -
23/05:00pm 14.4 3.2 7.6 63 3.4 WSW 56 67 30 36 1011.5 - -
23/04:50pm 14.5 3.3 7.5 63 3.5 WSW 56 70 30 38 1010.9 - -
23/04:40pm 14.4 1.9 7.5 63 3.4 WSW 63 72 34 39 1010.7 - -
23/04:30pm 14.4 2.6 7.6 63 3.4 WSW 59 74 32 40 1010.5 - -
23/04:20pm 14.4 3.0 7.4 63 3.4 WSW 57 70 31 38 1010.0 - -
23/04:10pm 14.3 0.9 7.2 62 3.5 WSW 67 85 36 46 1009.7 - -
23/04:00pm 14.3 1.3 7.3 63 3.4 WSW 65 78 35 42 1009.2 - -
23/03:50pm 14.2 2.0 7.3 63 3.4 WSW 61 76 33 41 1009.5 - -
23/03:40pm 14.5 1.5 7.4 62 3.5 WSW 65 82 35 44 1009.2 - -
23/03:30pm 14.6 2.4 7.5 62 3.5 WSW 61 76 33 41 1009.1 - -
23/03:20pm 14.6 2.1 7.5 62 3.5 WSW 63 72 34 39 1009.3 - -
23/03:10pm 14.6 2.8 7.6 63 3.5 WSW 59 72 32 39 1009.4 - -
23/03:00pm 14.5 2.4 7.6 63 3.4 WSW 61 74 33 40 1009.3 - -
23/02:50pm 14.4 2.3 7.6 63 3.4 WSW 61 76 33 41 1009.1 - -
23/02:40pm 14.3 2.5 7.5 63 3.4 WSW 59 76 32 41 1009.1 - -
23/02:30pm 14.2 1.2 7.2 63 3.4 WSW 65 89 35 48 1009.2 - -
23/02:20pm 14.7 1.7 7.0 60 3.8 WSW 65 83 35 45 1008.5 - -
23/02:10pm 14.7 1.7 7.1 60 3.7 WSW 65 83 35 45 1008.6 - -
23/02:00pm 14.6 0.8 6.9 60 3.8 WSW 69 80 37 43 1008.5 - -
23/01:50pm 14.4 1.7 6.8 60 3.7 WSW 63 96 34 52 1008.6 - -
23/01:40pm 14.8 1.0 6.8 58 3.9 WSW 69 83 37 45 1008.0 - -
23/01:30pm 14.7 1.7 7.0 60 3.8 WSW 65 80 35 43 1008.0 - -
23/01:20pm 14.6 1.5 6.8 59 3.8 WSW 65 78 35 42 1008.0 - -
23/01:10pm 14.5 1.9 7.2 61 3.6 WSW 63 82 34 44 1008.2 - -
23/01:00pm 14.4 2.0 8.1 66 3.1 WSW 63 78 34 42 1008.9 - -
23/12:50pm 14.3 2.3 8.0 66 3.1 WSW 61 83 33 45 1008.9 - -
23/12:40pm 14.3 3.3 8.4 67 3.0 W 56 78 30 42 1009.1 - -
23/12:30pm 14.4 3.3 8.6 68 2.9 W 57 72 31 39 1009.4 - -
23/12:20pm 14.3 3.7 8.6 68 2.9 W 54 65 29 35 1009.5 - -
23/12:10pm 14.3 3.7 8.3 67 3.0 WSW 54 70 29 38 1009.3 - -
23/12:00pm 14.5 2.5 8.2 66 3.2 WSW 61 82 33 44 1009.2 - -
23/11:50am 14.9 2.9 8.1 64 3.4 WSW 61 80 33 43 1008.7 - -
23/11:40am 14.8 3.7 8.0 64 3.4 WSW 56 69 30 37 1008.2 - -
23/11:30am 14.8 3.5 8.0 64 3.4 WSW 57 72 31 39 1008.2 - -
23/11:20am 14.8 2.8 8.0 64 3.4 W 61 78 33 42 1008.4 - -
23/11:10am 14.8 3.2 8.2 64 3.3 W 59 74 32 40 1007.8 - -
23/11:00am 14.9 3.3 8.2 64 3.4 WSW 59 78 32 42 1007.7 - -
23/10:50am 14.8 3.2 8.1 64 3.4 WSW 59 74 32 40 1007.8 - -
23/10:40am 14.9 3.2 8.0 63 3.5 WSW 59 76 32 41 1007.9 - -
23/10:30am 14.9 2.9 8.1 64 3.4 WSW 61 74 33 40 1007.8 - -
23/10:20am 15.0 3.0 8.3 64 3.4 W 61 76 33 41 1007.9 - -
23/10:10am 15.2 2.8 8.2 63 3.5 WSW 63 76 34 41 1008.1 - -
23/10:00am 16.0 3.6 8.3 60 3.9 W 63 80 34 43 1008.5 - -
23/09:50am 16.7 5.0 9.2 61 3.9 W 61 70 33 38 1007.5 - -
23/09:40am 15.6 3.7 8.7 63 3.5 W 61 72 33 39 1007.6 - -
23/09:30am 15.3 3.3 8.4 63 3.5 W 61 70 33 38 1008.0 - -
23/09:20am 15.3 3.4 8.7 64 3.4 W 61 72 33 39 1007.8 - -
23/09:10am 15.3 3.8 8.7 64 3.4 W 59 74 32 40 1007.2 - -
23/09:00am 15.9 5.1 9.3 65 3.4 W 56 70 30 38 1007.4 - -
23/08:40am 15.3 3.1 9.0 66 3.2 W 63 78 34 42 1007.0 - -
23/08:30am 15.4 3.6 9.1 66 3.2 W 61 74 33 40 1007.3 - -
23/08:20am 15.5 5.1 9.4 67 3.2 W 54 69 29 37 1007.4 - -
23/08:10am 15.4 6.2 9.5 68 3.1 W 48 59 26 32 1007.7 - -
23/08:00am 15.3 6.2 9.9 70 2.8 W 48 61 26 33 1008.0 - -
23/07:50am 15.1 6.4 9.8 70 2.8 W 46 57 25 31 1007.7 - -
23/07:30am 15.0 7.4 10.4 74 2.4 W 41 54 22 29 1007.1 - -
23/07:20am 14.9 6.9 10.6 75 2.3 W 43 50 23 27 1007.6 - -
23/07:10am 14.8 8.4 10.8 77 2.1 W 35 43 19 23 1007.8 - -
23/07:00am 14.6 8.8 10.8 78 2.0 W 32 41 17 22 1008.0 - -
23/06:50am 14.6 8.7 11.1 79 1.9 W 33 39 18 21 1008.1 - -
23/06:40am 14.4 8.7 11.1 80 1.8 WSW 32 41 17 22 1007.4 - -
23/06:30am 14.2 7.9 11.2 82 1.6 WSW 35 44 19 24 1007.5 - -
23/06:20am 14.0 8.1 11.0 82 1.6 WSW 33 43 18 23 1007.5 - -
23/06:10am 13.9 7.6 10.9 82 1.6 WSW 35 43 19 23 1007.3 - -
23/06:00am 13.9 7.5 10.8 81 1.6 WSW 35 41 19 22 1007.0 - -
23/05:50am 13.9 7.8 10.6 80 1.7 WSW 33 41 18 22 1007.1 - -
23/05:40am 13.9 8.0 10.5 80 1.8 WSW 32 41 17 22 1007.8 - -
23/05:30am 14.0 8.1 10.3 78 1.9 SW 32 41 17 22 1008.1 - -
23/05:20am 14.1 7.2 10.2 77 2.0 WSW 37 48 20 26 1007.7 - -
23/05:10am 14.4 6.2 10.4 77 2.1 WSW 44 56 24 30 1007.7 - -
23/05:00am 14.6 6.6 10.5 76 2.2 SW 43 56 23 30 1008.2 - -
23/04:50am 14.8 6.6 10.4 75 2.3 SW 44 54 24 29 1009.1 - -
23/04:40am 14.9 5.9 10.3 74 2.4 SW 48 57 26 31 1008.8 - -
23/04:30am 15.0 5.6 10.3 73 2.5 SW 50 61 27 33 1008.6 - -
23/04:20am 15.4 5.0 10.5 72 2.6 SW 56 69 30 37 1008.7 - -

Other Formats:

Comma delimited format used in spreadsheet applications
http://www.bom.gov.au/fwo/IDV60801/IDV60801.55039.axf

JavaScript Object Notation format (JSON) in row-major order
http://www.bom.gov.au/fwo/IDV60801/IDV60801.55039.json